sensor_id;sensor_type;location;lat;lon;timestamp;P1;durP1;ratioP1;P2;durP2;ratioP2
29214;SDS011;16252;49.816;7.964;2022-10-14T00:01:31;5.40;;;4.35;;
29214;SDS011;16252;49.816;7.964;2022-10-14T00:03:57;5.30;;;3.95;;
29214;SDS011;16252;49.816;7.964;2022-10-14T00:06:23;6.47;;;4.28;;
29214;SDS011;16252;49.816;7.964;2022-10-14T00:08:51;6.75;;;4.40;;
29214;SDS011;16252;49.816;7.964;2022-10-14T00:11:18;5.82;;;4.20;;
29214;SDS011;16252;49.816;7.964;2022-10-14T00:13:46;5.30;;;3.93;;
29214;SDS011;16252;49.816;7.964;2022-10-14T00:16:31;8.70;;;4.60;;
29214;SDS011;16252;49.816;7.964;2022-10-14T00:18:58;5.03;;;4.05;;
29214;SDS011;16252;49.816;7.964;2022-10-14T00:21:25;4.82;;;3.53;;
29214;SDS011;16252;49.816;7.964;2022-10-14T00:23:52;5.68;;;4.13;;
29214;SDS011;16252;49.816;7.964;2022-10-14T00:26:24;5.07;;;4.43;;
29214;SDS011;16252;49.816;7.964;2022-10-14T00:28:52;5.55;;;3.90;;
29214;SDS011;16252;49.816;7.964;2022-10-14T00:31:18;7.95;;;4.45;;
29214;SDS011;16252;49.816;7.964;2022-10-14T00:33:44;5.93;;;3.63;;
29214;SDS011;16252;49.816;7.964;2022-10-14T00:36:11;7.95;;;4.40;;
29214;SDS011;16252;49.816;7.964;2022-10-14T00:38:37;6.15;;;4.28;;
29214;SDS011;16252;49.816;7.964;2022-10-14T00:41:03;7.95;;;4.40;;
29214;SDS011;16252;49.816;7.964;2022-10-14T00:43:29;7.60;;;4.45;;
29214;SDS011;16252;49.816;7.964;2022-10-14T00:46:14;5.75;;;3.75;;
29214;SDS011;16252;49.816;7.964;2022-10-14T00:48:39;5.57;;;4.38;;
29214;SDS011;16252;49.816;7.964;2022-10-14T00:51:04;7.88;;;4.30;;
29214;SDS011;16252;49.816;7.964;2022-10-14T00:53:30;6.13;;;4.53;;
29214;SDS011;16252;49.816;7.964;2022-10-14T00:55:55;8.77;;;4.88;;
29214;SDS011;16252;49.816;7.964;2022-10-14T00:58:21;6.82;;;4.20;;
29214;SDS011;16252;49.816;7.964;2022-10-14T01:00:46;6.13;;;4.55;;
29214;SDS011;16252;49.816;7.964;2022-10-14T01:03:18;8.27;;;3.97;;
29214;SDS011;16252;49.816;7.964;2022-10-14T01:05:48;7.28;;;4.40;;
29214;SDS011;16252;49.816;7.964;2022-10-14T01:08:36;7.88;;;4.90;;
29214;SDS011;16252;49.816;7.964;2022-10-14T01:13:39;4.65;;;3.47;;
29214;SDS011;16252;49.816;7.964;2022-10-14T01:22:17;4.90;;;3.60;;
29214;SDS011;16252;49.816;7.964;2022-10-14T01:24:58;5.43;;;3.90;;
29214;SDS011;16252;49.816;7.964;2022-10-14T01:30:23;8.52;;;4.00;;
29214;SDS011;16252;49.816;7.964;2022-10-14T01:35:55;8.73;;;4.30;;
29214;SDS011;16252;49.816;7.964;2022-10-14T01:38:56;6.57;;;4.30;;
29214;SDS011;16252;49.816;7.964;2022-10-14T01:41:35;6.30;;;4.80;;
29214;SDS011;16252;49.816;7.964;2022-10-14T01:44:07;7.28;;;4.70;;
29214;SDS011;16252;49.816;7.964;2022-10-14T01:46:35;7.03;;;4.95;;
29214;SDS011;16252;49.816;7.964;2022-10-14T01:49:10;7.50;;;4.95;;
29214;SDS011;16252;49.816;7.964;2022-10-14T01:51:53;8.25;;;4.70;;
29214;SDS011;16252;49.816;7.964;2022-10-14T01:54:25;8.45;;;4.95;;
29214;SDS011;16252;49.816;7.964;2022-10-14T01:56:55;9.55;;;5.82;;
29214;SDS011;16252;49.816;7.964;2022-10-14T01:59:24;10.30;;;5.70;;
29214;SDS011;16252;49.816;7.964;2022-10-14T02:01:52;6.30;;;4.20;;
29214;SDS011;16252;49.816;7.964;2022-10-14T02:04:19;7.13;;;5.00;;
29214;SDS011;16252;49.816;7.964;2022-10-14T02:06:56;6.22;;;4.88;;
29214;SDS011;16252;49.816;7.964;2022-10-14T02:09:32;7.60;;;5.10;;
29214;SDS011;16252;49.816;7.964;2022-10-14T02:12:12;7.47;;;4.75;;
29214;SDS011;16252;49.816;7.964;2022-10-14T02:14:43;7.07;;;4.25;;
29214;SDS011;16252;49.816;7.964;2022-10-14T02:17:22;7.28;;;5.38;;
29214;SDS011;16252;49.816;7.964;2022-10-14T02:20:00;6.13;;;4.03;;
29214;SDS011;16252;49.816;7.964;2022-10-14T02:22:40;6.80;;;4.75;;
29214;SDS011;16252;49.816;7.964;2022-10-14T02:25:18;7.65;;;5.13;;
29214;SDS011;16252;49.816;7.964;2022-10-14T02:27:49;7.85;;;5.65;;
29214;SDS011;16252;49.816;7.964;2022-10-14T02:30:17;7.55;;;5.55;;
29214;SDS011;16252;49.816;7.964;2022-10-14T02:32:44;5.70;;;4.53;;
29214;SDS011;16252;49.816;7.964;2022-10-14T02:35:11;6.30;;;4.80;;
29214;SDS011;16252;49.816;7.964;2022-10-14T02:37:41;7.55;;;5.43;;
29214;SDS011;16252;49.816;7.964;2022-10-14T02:40:10;7.57;;;5.20;;
29214;SDS011;16252;49.816;7.964;2022-10-14T02:42:40;6.57;;;4.50;;
29214;SDS011;16252;49.816;7.964;2022-10-14T02:45:06;8.60;;;5.15;;
29214;SDS011;16252;49.816;7.964;2022-10-14T02:47:33;9.30;;;5.47;;
29214;SDS011;16252;49.816;7.964;2022-10-14T02:49:59;7.22;;;5.38;;
29214;SDS011;16252;49.816;7.964;2022-10-14T02:52:24;7.88;;;4.55;;
29214;SDS011;16252;49.816;7.964;2022-10-14T02:54:49;7.85;;;5.10;;
29214;SDS011;16252;49.816;7.964;2022-10-14T02:57:14;5.78;;;4.72;;
29214;SDS011;16252;49.816;7.964;2022-10-14T02:59:40;7.63;;;5.00;;
29214;SDS011;16252;49.816;7.964;2022-10-14T03:02:06;8.52;;;5.43;;
29214;SDS011;16252;49.816;7.964;2022-10-14T03:04:32;6.95;;;5.40;;
29214;SDS011;16252;49.816;7.964;2022-10-14T03:06:58;6.35;;;4.55;;
29214;SDS011;16252;49.816;7.964;2022-10-14T03:09:23;5.78;;;4.50;;
29214;SDS011;16252;49.816;7.964;2022-10-14T03:11:48;8.00;;;5.05;;
29214;SDS011;16252;49.816;7.964;2022-10-14T03:14:13;10.40;;;5.75;;
29214;SDS011;16252;49.816;7.964;2022-10-14T03:16:39;9.32;;;6.90;;
29214;SDS011;16252;49.816;7.964;2022-10-14T03:19:04;12.88;;;7.35;;
29214;SDS011;16252;49.816;7.964;2022-10-14T03:21:29;9.35;;;6.75;;
29214;SDS011;16252;49.816;7.964;2022-10-14T03:23:55;9.88;;;6.60;;
29214;SDS011;16252;49.816;7.964;2022-10-14T03:26:20;9.32;;;7.25;;
29214;SDS011;16252;49.816;7.964;2022-10-14T03:28:45;7.05;;;5.75;;
29214;SDS011;16252;49.816;7.964;2022-10-14T03:31:11;10.65;;;6.30;;
29214;SDS011;16252;49.816;7.964;2022-10-14T03:33:36;7.65;;;5.85;;
29214;SDS011;16252;49.816;7.964;2022-10-14T03:36:01;7.82;;;6.55;;
29214;SDS011;16252;49.816;7.964;2022-10-14T03:38:28;9.82;;;6.93;;
29214;SDS011;16252;49.816;7.964;2022-10-14T03:40:53;7.28;;;5.25;;
29214;SDS011;16252;49.816;7.964;2022-10-14T03:43:18;7.40;;;5.63;;
29214;SDS011;16252;49.816;7.964;2022-10-14T03:45:44;8.40;;;6.25;;
29214;SDS011;16252;49.816;7.964;2022-10-14T03:48:10;8.35;;;6.97;;
29214;SDS011;16252;49.816;7.964;2022-10-14T03:50:35;8.70;;;6.30;;
29214;SDS011;16252;49.816;7.964;2022-10-14T03:53:01;7.97;;;6.07;;
29214;SDS011;16252;49.816;7.964;2022-10-14T03:55:26;10.20;;;6.85;;
29214;SDS011;16252;49.816;7.964;2022-10-14T03:57:51;7.90;;;6.30;;
29214;SDS011;16252;49.816;7.964;2022-10-14T04:00:16;7.50;;;6.20;;
29214;SDS011;16252;49.816;7.964;2022-10-14T04:02:42;9.25;;;6.20;;
29214;SDS011;16252;49.816;7.964;2022-10-14T04:05:07;10.70;;;7.05;;
29214;SDS011;16252;49.816;7.964;2022-10-14T04:07:33;10.65;;;6.70;;
29214;SDS011;16252;49.816;7.964;2022-10-14T04:09:59;8.80;;;6.95;;
29214;SDS011;16252;49.816;7.964;2022-10-14T04:12:24;9.95;;;6.68;;
29214;SDS011;16252;49.816;7.964;2022-10-14T04:14:49;8.82;;;5.88;;
29214;SDS011;16252;49.816;7.964;2022-10-14T04:17:15;6.65;;;5.13;;
29214;SDS011;16252;49.816;7.964;2022-10-14T04:19:40;7.75;;;5.82;;
29214;SDS011;16252;49.816;7.964;2022-10-14T04:22:05;10.15;;;7.65;;
29214;SDS011;16252;49.816;7.964;2022-10-14T04:24:30;10.18;;;8.27;;
29214;SDS011;16252;49.816;7.964;2022-10-14T04:26:56;10.63;;;7.88;;
29214;SDS011;16252;49.816;7.964;2022-10-14T04:29:21;13.27;;;8.07;;
29214;SDS011;16252;49.816;7.964;2022-10-14T04:31:47;11.55;;;8.32;;
29214;SDS011;16252;49.816;7.964;2022-10-14T04:34:12;9.40;;;6.95;;
29214;SDS011;16252;49.816;7.964;2022-10-14T04:36:38;11.52;;;7.63;;
29214;SDS011;16252;49.816;7.964;2022-10-14T04:39:04;9.82;;;7.55;;
29214;SDS011;16252;49.816;7.964;2022-10-14T04:41:29;13.07;;;8.18;;
29214;SDS011;16252;49.816;7.964;2022-10-14T04:43:55;9.68;;;8.02;;
29214;SDS011;16252;49.816;7.964;2022-10-14T04:46:20;12.23;;;8.60;;
29214;SDS011;16252;49.816;7.964;2022-10-14T04:48:46;10.20;;;7.75;;
29214;SDS011;16252;49.816;7.964;2022-10-14T04:51:12;9.05;;;6.90;;
29214;SDS011;16252;49.816;7.964;2022-10-14T04:53:37;11.32;;;8.15;;
29214;SDS011;16252;49.816;7.964;2022-10-14T04:56:03;9.77;;;8.00;;
29214;SDS011;16252;49.816;7.964;2022-10-14T04:58:28;12.88;;;7.93;;
29214;SDS011;16252;49.816;7.964;2022-10-14T05:00:54;13.73;;;9.82;;
29214;SDS011;16252;49.816;7.964;2022-10-14T05:03:19;16.15;;;12.35;;
29214;SDS011;16252;49.816;7.964;2022-10-14T05:05:45;16.17;;;11.77;;
29214;SDS011;16252;49.816;7.964;2022-10-14T05:08:10;14.07;;;10.02;;
29214;SDS011;16252;49.816;7.964;2022-10-14T05:10:35;12.88;;;9.63;;
29214;SDS011;16252;49.816;7.964;2022-10-14T05:13:01;13.55;;;9.90;;
29214;SDS011;16252;49.816;7.964;2022-10-14T05:15:27;11.43;;;8.95;;
29214;SDS011;16252;49.816;7.964;2022-10-14T05:17:53;9.95;;;7.88;;
29214;SDS011;16252;49.816;7.964;2022-10-14T05:20:18;11.43;;;7.53;;
29214;SDS011;16252;49.816;7.964;2022-10-14T05:22:44;9.65;;;6.57;;
29214;SDS011;16252;49.816;7.964;2022-10-14T05:25:09;8.18;;;6.65;;
29214;SDS011;16252;49.816;7.964;2022-10-14T05:27:35;7.78;;;6.38;;
29214;SDS011;16252;49.816;7.964;2022-10-14T05:30:00;10.82;;;6.35;;
29214;SDS011;16252;49.816;7.964;2022-10-14T05:32:26;8.93;;;6.00;;
29214;SDS011;16252;49.816;7.964;2022-10-14T05:34:52;8.32;;;6.80;;
29214;SDS011;16252;49.816;7.964;2022-10-14T05:37:17;9.45;;;7.18;;
29214;SDS011;16252;49.816;7.964;2022-10-14T05:39:43;8.35;;;6.32;;
29214;SDS011;16252;49.816;7.964;2022-10-14T05:42:08;9.93;;;7.35;;
29214;SDS011;16252;49.816;7.964;2022-10-14T05:44:33;6.95;;;5.43;;
29214;SDS011;16252;49.816;7.964;2022-10-14T05:46:58;8.45;;;6.80;;
29214;SDS011;16252;49.816;7.964;2022-10-14T05:49:24;9.05;;;6.80;;
29214;SDS011;16252;49.816;7.964;2022-10-14T05:51:49;11.10;;;7.18;;
29214;SDS011;16252;49.816;7.964;2022-10-14T05:54:14;10.52;;;8.40;;
29214;SDS011;16252;49.816;7.964;2022-10-14T05:56:40;17.08;;;9.93;;
29214;SDS011;16252;49.816;7.964;2022-10-14T05:59:05;12.85;;;9.27;;
29214;SDS011;16252;49.816;7.964;2022-10-14T06:01:30;12.55;;;9.07;;
29214;SDS011;16252;49.816;7.964;2022-10-14T06:03:58;12.48;;;7.75;;
29214;SDS011;16252;49.816;7.964;2022-10-14T06:06:23;11.43;;;7.72;;
29214;SDS011;16252;49.816;7.964;2022-10-14T06:11:16;10.10;;;7.30;;
29214;SDS011;16252;49.816;7.964;2022-10-14T06:13:42;9.57;;;7.10;;
29214;SDS011;16252;49.816;7.964;2022-10-14T06:16:08;8.25;;;5.68;;
29214;SDS011;16252;49.816;7.964;2022-10-14T06:18:34;8.15;;;5.97;;
29214;SDS011;16252;49.816;7.964;2022-10-14T06:21:00;9.82;;;7.03;;
29214;SDS011;16252;49.816;7.964;2022-10-14T06:23:25;9.75;;;6.57;;
29214;SDS011;16252;49.816;7.964;2022-10-14T06:25:50;8.13;;;6.40;;
29214;SDS011;16252;49.816;7.964;2022-10-14T06:28:16;8.80;;;6.75;;
29214;SDS011;16252;49.816;7.964;2022-10-14T06:30:41;10.32;;;7.45;;
29214;SDS011;16252;49.816;7.964;2022-10-14T06:33:07;9.75;;;7.38;;
29214;SDS011;16252;49.816;7.964;2022-10-14T06:35:32;9.40;;;7.22;;
29214;SDS011;16252;49.816;7.964;2022-10-14T06:37:58;10.18;;;7.03;;
29214;SDS011;16252;49.816;7.964;2022-10-14T06:40:23;9.52;;;7.45;;
29214;SDS011;16252;49.816;7.964;2022-10-14T06:42:49;11.38;;;7.88;;
29214;SDS011;16252;49.816;7.964;2022-10-14T06:45:14;12.88;;;8.43;;
29214;SDS011;16252;49.816;7.964;2022-10-14T06:47:40;9.48;;;7.38;;
29214;SDS011;16252;49.816;7.964;2022-10-14T06:50:05;9.75;;;8.02;;
29214;SDS011;16252;49.816;7.964;2022-10-14T06:52:31;10.23;;;7.35;;
29214;SDS011;16252;49.816;7.964;2022-10-14T06:54:56;11.02;;;7.13;;
29214;SDS011;16252;49.816;7.964;2022-10-14T06:57:22;9.55;;;7.55;;
29214;SDS011;16252;49.816;7.964;2022-10-14T06:59:47;9.75;;;7.32;;
29214;SDS011;16252;49.816;7.964;2022-10-14T07:02:15;11.23;;;7.55;;
29214;SDS011;16252;49.816;7.964;2022-10-14T07:04:40;11.30;;;7.68;;
29214;SDS011;16252;49.816;7.964;2022-10-14T07:07:08;11.25;;;7.35;;
29214;SDS011;16252;49.816;7.964;2022-10-14T07:09:33;11.00;;;7.80;;
29214;SDS011;16252;49.816;7.964;2022-10-14T07:11:59;13.95;;;7.80;;
29214;SDS011;16252;49.816;7.964;2022-10-14T07:14:25;9.82;;;7.75;;
29214;SDS011;16252;49.816;7.964;2022-10-14T07:16:50;10.02;;;7.35;;
29214;SDS011;16252;49.816;7.964;2022-10-14T07:19:17;10.00;;;7.28;;
29214;SDS011;16252;49.816;7.964;2022-10-14T07:21:42;11.63;;;7.22;;
29214;SDS011;16252;49.816;7.964;2022-10-14T07:24:10;10.68;;;7.32;;
29214;SDS011;16252;49.816;7.964;2022-10-14T07:26:36;10.82;;;7.28;;
29214;SDS011;16252;49.816;7.964;2022-10-14T07:29:02;8.10;;;6.55;;
29214;SDS011;16252;49.816;7.964;2022-10-14T07:31:34;8.60;;;6.53;;
29214;SDS011;16252;49.816;7.964;2022-10-14T07:33:59;10.35;;;7.75;;
29214;SDS011;16252;49.816;7.964;2022-10-14T07:36:25;14.25;;;7.95;;
29214;SDS011;16252;49.816;7.964;2022-10-14T07:38:54;12.48;;;7.57;;
29214;SDS011;16252;49.816;7.964;2022-10-14T07:41:21;11.38;;;7.05;;
29214;SDS011;16252;49.816;7.964;2022-10-14T07:43:53;9.73;;;7.15;;
29214;SDS011;16252;49.816;7.964;2022-10-14T07:46:23;9.57;;;7.57;;
29214;SDS011;16252;49.816;7.964;2022-10-14T07:48:59;11.38;;;7.05;;
29214;SDS011;16252;49.816;7.964;2022-10-14T07:51:29;10.18;;;7.25;;
29214;SDS011;16252;49.816;7.964;2022-10-14T07:53:56;11.35;;;6.78;;
29214;SDS011;16252;49.816;7.964;2022-10-14T07:56:23;7.78;;;6.30;;
29214;SDS011;16252;49.816;7.964;2022-10-14T07:58:49;9.75;;;7.13;;
29214;SDS011;16252;49.816;7.964;2022-10-14T08:01:17;8.27;;;6.57;;
29214;SDS011;16252;49.816;7.964;2022-10-14T08:03:43;8.82;;;6.35;;
29214;SDS011;16252;49.816;7.964;2022-10-14T08:06:09;7.53;;;5.88;;
29214;SDS011;16252;49.816;7.964;2022-10-14T08:08:34;8.13;;;5.63;;
29214;SDS011;16252;49.816;7.964;2022-10-14T08:11:06;9.73;;;6.75;;
29214;SDS011;16252;49.816;7.964;2022-10-14T08:13:39;7.97;;;5.88;;
29214;SDS011;16252;49.816;7.964;2022-10-14T08:16:16;9.40;;;6.35;;
29214;SDS011;16252;49.816;7.964;2022-10-14T08:18:43;9.07;;;6.70;;
29214;SDS011;16252;49.816;7.964;2022-10-14T08:21:10;8.45;;;6.18;;
29214;SDS011;16252;49.816;7.964;2022-10-14T08:23:36;10.70;;;6.95;;
29214;SDS011;16252;49.816;7.964;2022-10-14T08:26:01;8.38;;;5.90;;
29214;SDS011;16252;49.816;7.964;2022-10-14T08:28:27;9.15;;;6.30;;
29214;SDS011;16252;49.816;7.964;2022-10-14T08:30:52;7.07;;;5.85;;
29214;SDS011;16252;49.816;7.964;2022-10-14T08:33:18;9.05;;;6.22;;
29214;SDS011;16252;49.816;7.964;2022-10-14T08:35:44;8.65;;;6.00;;
29214;SDS011;16252;49.816;7.964;2022-10-14T08:38:09;7.05;;;5.68;;
29214;SDS011;16252;49.816;7.964;2022-10-14T08:40:48;8.10;;;5.40;;
29214;SDS011;16252;49.816;7.964;2022-10-14T08:43:29;7.65;;;5.60;;
29214;SDS011;16252;49.816;7.964;2022-10-14T08:46:01;7.85;;;5.50;;
29214;SDS011;16252;49.816;7.964;2022-10-14T08:48:35;7.68;;;5.13;;
29214;SDS011;16252;49.816;7.964;2022-10-14T08:51:03;7.00;;;5.28;;
29214;SDS011;16252;49.816;7.964;2022-10-14T08:53:36;8.07;;;5.38;;
29214;SDS011;16252;49.816;7.964;2022-10-14T08:56:05;8.48;;;5.38;;
29214;SDS011;16252;49.816;7.964;2022-10-14T08:58:37;6.82;;;5.03;;
29214;SDS011;16252;49.816;7.964;2022-10-14T09:01:27;7.45;;;5.07;;
29214;SDS011;16252;49.816;7.964;2022-10-14T09:03:59;5.28;;;4.35;;
29214;SDS011;16252;49.816;7.964;2022-10-14T09:06:27;5.82;;;4.78;;
29214;SDS011;16252;49.816;7.964;2022-10-14T09:08:59;6.25;;;4.72;;
29214;SDS011;16252;49.816;7.964;2022-10-14T09:11:33;7.88;;;4.50;;
29214;SDS011;16252;49.816;7.964;2022-10-14T09:14:05;7.68;;;4.78;;
29214;SDS011;16252;49.816;7.964;2022-10-14T09:16:34;8.25;;;4.35;;
29214;SDS011;16252;49.816;7.964;2022-10-14T09:19:02;8.32;;;4.55;;
29214;SDS011;16252;49.816;7.964;2022-10-14T09:24:04;9.75;;;5.32;;
29214;SDS011;16252;49.816;7.964;2022-10-14T09:26:41;6.97;;;4.07;;
29214;SDS011;16252;49.816;7.964;2022-10-14T09:29:27;7.18;;;4.68;;
29214;SDS011;16252;49.816;7.964;2022-10-14T09:31:58;7.57;;;4.65;;
29214;SDS011;16252;49.816;7.964;2022-10-14T09:34:32;7.30;;;4.45;;
29214;SDS011;16252;49.816;7.964;2022-10-14T09:37:43;7.88;;;4.55;;
29214;SDS011;16252;49.816;7.964;2022-10-14T09:39:53;6.05;;;4.13;;
29214;SDS011;16252;49.816;7.964;2022-10-14T09:42:22;7.60;;;4.75;;
29214;SDS011;16252;49.816;7.964;2022-10-14T09:47:44;5.68;;;4.35;;
29214;SDS011;16252;49.816;7.964;2022-10-14T09:50:23;6.35;;;4.03;;
29214;SDS011;16252;49.816;7.964;2022-10-14T09:53:02;8.85;;;5.00;;
29214;SDS011;16252;49.816;7.964;2022-10-14T09:55:31;5.95;;;4.47;;
29214;SDS011;16252;49.816;7.964;2022-10-14T09:58:07;5.28;;;4.15;;
29214;SDS011;16252;49.816;7.964;2022-10-14T10:00:40;4.82;;;3.92;;
29214;SDS011;16252;49.816;7.964;2022-10-14T10:03:07;6.28;;;4.43;;
29214;SDS011;16252;49.816;7.964;2022-10-14T10:05:33;5.43;;;4.43;;
29214;SDS011;16252;49.816;7.964;2022-10-14T10:08:14;8.10;;;4.78;;
29214;SDS011;16252;49.816;7.964;2022-10-14T10:10:54;6.13;;;3.92;;
29214;SDS011;16252;49.816;7.964;2022-10-14T10:13:35;6.47;;;4.47;;
29214;SDS011;16252;49.816;7.964;2022-10-14T10:16:21;9.50;;;5.40;;
29214;SDS011;16252;49.816;7.964;2022-10-14T10:18:51;5.80;;;4.53;;
29214;SDS011;16252;49.816;7.964;2022-10-14T10:21:28;7.78;;;4.80;;
29214;SDS011;16252;49.816;7.964;2022-10-14T10:23:58;5.85;;;4.40;;
29214;SDS011;16252;49.816;7.964;2022-10-14T10:26:26;7.28;;;4.88;;
29214;SDS011;16252;49.816;7.964;2022-10-14T10:28:58;7.13;;;4.30;;
29214;SDS011;16252;49.816;7.964;2022-10-14T10:31:45;6.57;;;4.72;;
29214;SDS011;16252;49.816;7.964;2022-10-14T10:34:34;5.97;;;4.93;;
29214;SDS011;16252;49.816;7.964;2022-10-14T10:37:18;6.07;;;4.85;;
29214;SDS011;16252;49.816;7.964;2022-10-14T10:45:00;8.05;;;5.20;;
29214;SDS011;16252;49.816;7.964;2022-10-14T10:50:22;6.72;;;4.97;;
29214;SDS011;16252;49.816;7.964;2022-10-14T11:04:27;6.85;;;5.70;;
29214;SDS011;16252;49.816;7.964;2022-10-14T11:07:03;6.68;;;5.60;;
29214;SDS011;16252;49.816;7.964;2022-10-14T11:10:15;6.15;;;4.95;;
29214;SDS011;16252;49.816;7.964;2022-10-14T11:15:33;6.93;;;5.20;;
29214;SDS011;16252;49.816;7.964;2022-10-14T11:18:52;11.00;;;5.38;;
29214;SDS011;16252;49.816;7.964;2022-10-14T11:21:17;8.07;;;5.65;;
29214;SDS011;16252;49.816;7.964;2022-10-14T11:29:19;7.10;;;4.82;;
29214;SDS011;16252;49.816;7.964;2022-10-14T11:32:08;7.45;;;5.15;;
29214;SDS011;16252;49.816;7.964;2022-10-14T11:35:17;7.10;;;5.05;;
29214;SDS011;16252;49.816;7.964;2022-10-14T11:37:48;6.28;;;4.80;;
29214;SDS011;16252;49.816;7.964;2022-10-14T11:40:44;5.65;;;4.50;;
29214;SDS011;16252;49.816;7.964;2022-10-14T11:43:42;4.60;;;3.50;;
29214;SDS011;16252;49.816;7.964;2022-10-14T11:46:15;4.90;;;3.10;;
29214;SDS011;16252;49.816;7.964;2022-10-14T11:51:32;4.57;;;2.97;;
29214;SDS011;16252;49.816;7.964;2022-10-14T11:54:03;4.18;;;3.35;;
29214;SDS011;16252;49.816;7.964;2022-10-14T11:56:40;3.53;;;2.78;;
29214;SDS011;16252;49.816;7.964;2022-10-14T11:59:21;7.15;;;3.20;;
29214;SDS011;16252;49.816;7.964;2022-10-14T12:01:59;4.07;;;2.42;;
29214;SDS011;16252;49.816;7.964;2022-10-14T12:04:46;3.80;;;2.80;;
29214;SDS011;16252;49.816;7.964;2022-10-14T12:07:17;5.60;;;2.88;;
29214;SDS011;16252;49.816;7.964;2022-10-14T12:10:03;4.95;;;2.83;;
29214;SDS011;16252;49.816;7.964;2022-10-14T12:12:37;2.80;;;2.50;;
29214;SDS011;16252;49.816;7.964;2022-10-14T12:15:05;4.00;;;2.58;;
29214;SDS011;16252;49.816;7.964;2022-10-14T12:17:48;5.15;;;2.47;;
29214;SDS011;16252;49.816;7.964;2022-10-14T12:21:06;2.92;;;2.30;;
29214;SDS011;16252;49.816;7.964;2022-10-14T12:23:30;2.40;;;2.15;;
29214;SDS011;16252;49.816;7.964;2022-10-14T12:28:38;3.28;;;2.38;;
29214;SDS011;16252;49.816;7.964;2022-10-14T12:36:35;2.35;;;1.90;;
29214;SDS011;16252;49.816;7.964;2022-10-14T12:39:35;2.20;;;2.00;;
29214;SDS011;16252;49.816;7.964;2022-10-14T12:42:08;1.92;;;1.75;;
29214;SDS011;16252;49.816;7.964;2022-10-14T12:44:44;2.50;;;1.88;;
29214;SDS011;16252;49.816;7.964;2022-10-14T12:47:16;1.50;;;1.35;;
29214;SDS011;16252;49.816;7.964;2022-10-14T12:49:48;1.42;;;1.23;;
29214;SDS011;16252;49.816;7.964;2022-10-14T12:52:18;1.65;;;1.30;;
29214;SDS011;16252;49.816;7.964;2022-10-14T12:54:47;1.77;;;1.50;;
29214;SDS011;16252;49.816;7.964;2022-10-14T12:57:46;5.13;;;1.50;;
29214;SDS011;16252;49.816;7.964;2022-10-14T13:00:26;2.40;;;1.35;;
29214;SDS011;16252;49.816;7.964;2022-10-14T13:02:52;1.25;;;1.05;;
29214;SDS011;16252;49.816;7.964;2022-10-14T13:05:21;3.60;;;1.33;;
29214;SDS011;16252;49.816;7.964;2022-10-14T13:08:12;2.88;;;1.70;;
29214;SDS011;16252;49.816;7.964;2022-10-14T13:23:46;1.92;;;1.52;;
29214;SDS011;16252;49.816;7.964;2022-10-14T13:29:16;1.50;;;1.40;;
29214;SDS011;16252;49.816;7.964;2022-10-14T13:32:11;4.10;;;1.40;;
29214;SDS011;16252;49.816;7.964;2022-10-14T13:40:31;1.70;;;1.30;;
29214;SDS011;16252;49.816;7.964;2022-10-14T13:43:00;2.88;;;1.08;;
29214;SDS011;16252;49.816;7.964;2022-10-14T13:45:43;1.88;;;1.25;;
29214;SDS011;16252;49.816;7.964;2022-10-14T13:48:19;1.92;;;1.40;;
29214;SDS011;16252;49.816;7.964;2022-10-14T13:50:51;2.38;;;1.70;;
29214;SDS011;16252;49.816;7.964;2022-10-14T13:53:30;2.85;;;2.00;;
29214;SDS011;16252;49.816;7.964;2022-10-14T13:55:55;3.15;;;2.15;;
29214;SDS011;16252;49.816;7.964;2022-10-14T13:58:22;5.28;;;2.33;;
29214;SDS011;16252;49.816;7.964;2022-10-14T14:03:45;2.38;;;1.90;;
29214;SDS011;16252;49.816;7.964;2022-10-14T14:06:14;6.07;;;4.45;;
29214;SDS011;16252;49.816;7.964;2022-10-14T14:08:48;6.63;;;5.22;;
29214;SDS011;16252;49.816;7.964;2022-10-14T14:11:18;12.70;;;7.78;;
29214;SDS011;16252;49.816;7.964;2022-10-14T14:16:35;8.93;;;6.78;;
29214;SDS011;16252;49.816;7.964;2022-10-14T14:19:04;6.65;;;4.68;;
29214;SDS011;16252;49.816;7.964;2022-10-14T14:21:30;4.13;;;3.72;;
29214;SDS011;16252;49.816;7.964;2022-10-14T14:23:57;4.32;;;2.80;;
29214;SDS011;16252;49.816;7.964;2022-10-14T14:26:37;3.00;;;2.40;;
29214;SDS011;16252;49.816;7.964;2022-10-14T14:29:13;2.22;;;1.60;;
29214;SDS011;16252;49.816;7.964;2022-10-14T14:31:41;1.60;;;1.50;;
29214;SDS011;16252;49.816;7.964;2022-10-14T14:34:10;1.40;;;1.27;;
29214;SDS011;16252;49.816;7.964;2022-10-14T14:36:42;1.40;;;1.30;;
29214;SDS011;16252;49.816;7.964;2022-10-14T14:39:21;1.25;;;1.10;;
29214;SDS011;16252;49.816;7.964;2022-10-14T14:41:50;3.03;;;1.95;;
29214;SDS011;16252;49.816;7.964;2022-10-14T14:44:18;2.35;;;1.70;;
29214;SDS011;16252;49.816;7.964;2022-10-14T14:46:46;1.50;;;1.33;;
29214;SDS011;16252;49.816;7.964;2022-10-14T14:49:14;1.92;;;1.52;;
29214;SDS011;16252;49.816;7.964;2022-10-14T14:51:41;2.55;;;1.60;;
29214;SDS011;16252;49.816;7.964;2022-10-14T14:54:11;1.98;;;1.58;;
29214;SDS011;16252;49.816;7.964;2022-10-14T14:56:42;4.35;;;3.35;;
29214;SDS011;16252;49.816;7.964;2022-10-14T14:59:19;3.65;;;2.65;;
29214;SDS011;16252;49.816;7.964;2022-10-14T15:02:00;2.85;;;2.10;;
29214;SDS011;16252;49.816;7.964;2022-10-14T15:04:27;2.10;;;1.63;;
29214;SDS011;16252;49.816;7.964;2022-10-14T15:07:01;1.40;;;1.30;;
29214;SDS011;16252;49.816;7.964;2022-10-14T15:12:19;1.30;;;1.20;;
29214;SDS011;16252;49.816;7.964;2022-10-14T15:14:53;1.15;;;1.02;;
29214;SDS011;16252;49.816;7.964;2022-10-14T15:17:31;1.20;;;1.10;;
29214;SDS011;16252;49.816;7.964;2022-10-14T15:20:43;1.58;;;1.25;;
29214;SDS011;16252;49.816;7.964;2022-10-14T15:22:44;1.33;;;1.20;;
29214;SDS011;16252;49.816;7.964;2022-10-14T15:27:58;1.80;;;1.50;;
29214;SDS011;16252;49.816;7.964;2022-10-14T15:32:57;2.33;;;1.60;;
29214;SDS011;16252;49.816;7.964;2022-10-14T15:35:25;2.13;;;1.80;;
29214;SDS011;16252;49.816;7.964;2022-10-14T15:37:51;1.67;;;1.58;;
29214;SDS011;16252;49.816;7.964;2022-10-14T15:40:20;1.90;;;1.70;;
29214;SDS011;16252;49.816;7.964;2022-10-14T15:42:47;2.40;;;1.50;;
29214;SDS011;16252;49.816;7.964;2022-10-14T15:45:14;1.55;;;1.23;;
29214;SDS011;16252;49.816;7.964;2022-10-14T15:47:39;1.73;;;1.52;;
29214;SDS011;16252;49.816;7.964;2022-10-14T15:50:16;2.30;;;1.63;;
29214;SDS011;16252;49.816;7.964;2022-10-14T15:52:43;2.40;;;2.10;;
29214;SDS011;16252;49.816;7.964;2022-10-14T15:58:04;5.72;;;4.38;;
29214;SDS011;16252;49.816;7.964;2022-10-14T16:00:30;4.03;;;3.33;;
29214;SDS011;16252;49.816;7.964;2022-10-14T16:02:56;3.88;;;2.45;;
29214;SDS011;16252;49.816;7.964;2022-10-14T16:05:22;2.40;;;2.15;;
29214;SDS011;16252;49.816;7.964;2022-10-14T16:07:48;3.28;;;2.28;;
29214;SDS011;16252;49.816;7.964;2022-10-14T16:10:15;3.25;;;2.10;;
29214;SDS011;16252;49.816;7.964;2022-10-14T16:12:42;2.38;;;1.90;;
29214;SDS011;16252;49.816;7.964;2022-10-14T16:15:13;1.73;;;1.63;;
29214;SDS011;16252;49.816;7.964;2022-10-14T16:17:52;1.42;;;1.20;;
29214;SDS011;16252;49.816;7.964;2022-10-14T16:20:17;2.15;;;1.52;;
29214;SDS011;16252;49.816;7.964;2022-10-14T16:22:42;3.08;;;1.90;;
29214;SDS011;16252;49.816;7.964;2022-10-14T16:25:18;2.42;;;2.08;;
29214;SDS011;16252;49.816;7.964;2022-10-14T16:27:47;2.63;;;2.17;;
29214;SDS011;16252;49.816;7.964;2022-10-14T16:30:14;2.58;;;2.00;;
29214;SDS011;16252;49.816;7.964;2022-10-14T16:32:39;2.13;;;1.85;;
29214;SDS011;16252;49.816;7.964;2022-10-14T16:35:05;2.53;;;1.63;;
29214;SDS011;16252;49.816;7.964;2022-10-14T16:37:30;2.28;;;1.90;;
29214;SDS011;16252;49.816;7.964;2022-10-14T16:39:56;2.75;;;2.10;;
29214;SDS011;16252;49.816;7.964;2022-10-14T16:42:21;2.58;;;1.75;;
29214;SDS011;16252;49.816;7.964;2022-10-14T16:44:46;3.10;;;2.42;;